Hampton Head 4's and 8's - 2017

by MyRaceTime.co.uk


Results by Club

Published on: 04 February 2017
Race Pos. > Category Pos. Comp. No. Comp. Name Division > Category > Time (hh:mm:ss:t) Prize
Club: A B Severn
66 18 474 ABV-Andre 2 J18A.4x- 00:08:05:1
126 3 654 ABV-Sayers 2 J15A.4x+ 00:08:23:3
202 14 9 ABV-Young 1 J18A.2x 00:08:41:5
272 15 588 ABV-Surman 2 W.J18A.4x- 00:08:57:1
357 19 78 ABV-Skinner 1 W.J18A.2x 00:09:17:5
371 19 697 ABV-Jones 2 W.J15A.4x+ 00:09:20:2
386 14 47 ABV-Mitchell 1 J16A.2x 00:09:24:7
418 7 122 ABV-Surman 1 W.J16A.2x 00:09:34:9
435 11 307 ABV-McDermott 1 W.J15A.2x 00:09:42:3
Club: American Sch
49 16 480 ASL-Troyer 2 J18A.4x- 00:08:00:2
191 10 593 ASL-Bake 2 W.J18A.4x- 00:08:39:7
234 16 14 ASL-Mannhardt 1 J18A.2x 00:08:46:7
243 3 81 ASL-Brunsberg 1 W.J18A.2x 00:08:49:7
473 37 271 ASL-Benami Narasimhan 1 W.J15A.4x+ 00:10:54:0
Scratched 135 ASL-Lambden 1 W.J16A.2x 00:00:00:0
Scratched 668 ASL-Gorrivan 2 J15A.4x+ 00:00:00:0
Club: American Sch Lon/Tideway Scullers
Time Only 1 ASL/TSS-Joss/Skow 1 J18A.2x 00:08:02:3
Club: Barn Elms
248 17 18 BAE-Watkins 1 J18A.2x 00:08:50:7
393 12 247 BAE-Woods 1 J15A.2x 00:09:27:4
429 21 598 BAE-Arney 2 W.J18A.4x- 00:09:40:5
437 30 102 BAE-Griffin 1 W.J18A.2x 00:09:44:0
461 7 115 BAE-Gracey 1 W.J18A.2- 00:10:07:2
Scratched 7 BAE-Holt 1 J18A.2x 00:00:00:0
Scratched 272 BAE-Oliver 1 W.J15A.4x+ 00:00:00:0
Club: Becket RC
67 1 570 BKS-Richards 2 W.J18A.8+ 00:08:05:3
161 11 527 BKS-IWANSKYJ 2 J16A.4x- 00:08:32:3
266 10 281 BKS-Mckean 1 W.J15A.4x+ 00:08:56:3
310 1 132 BKS-Bates 1 W.J16A.2x 00:09:05:2
Club: Bedford Modern Sch
21 11 464 BMS-Colliver 2 J18A.8+ 00:07:44:3
69 5 508 BMS-Herbert 2 J16A.8+ 00:08:06:6
77 5 160 BMS-Colliver 1 J18A.4+ 00:08:10:2
141 17 554 BMS-Fox 2 J15A.8+ 00:08:28:3
159 5 194 BMS-Herbert 1 J16A.4+ 00:08:31:9
200 12 587 BMS-Monaghan 2 W.J18A.4x- 00:08:41:2
219 6 176 BMS-Graham 1 W.JSchA.4- 00:08:44:6
339 13 629 BMS-Hale 2 W.J16A.4x- 00:09:12:5
343 7 205 BMS-Ball 1 W.J18A.4+ 00:09:13:6
395 20 696 BMS-Eales 2 W.J15A.4x+ 00:09:27:4
410 4 305 BMS-Eales 1 W.J15A.2x 00:09:32:1
438 26 713 BMS-Andrew 2 W.J15A.4x+ 00:09:44:0
452 14 285 BMS-Burchell 1 W.J15A.2x 00:09:54:6
Club: Bedford Sch
7 7 459 BDS-Lamb 2 J18A.8+ 00:07:23:5
32 3 500 BDS -2 2 J18A.8+ 2nd VIII 00:07:49:3
59 3 164 BDS-Eggeling 1 J18A.4+ 00:08:02:3
107 15 559 BDS-Celeritas2 2 J15A.8+ 00:08:19:0
121 16 546 BDS-Murray 2 J15A.8+ 00:08:21:7
231 9 35 BDS-Mitchell 1 J18A.2- 00:08:46:4
265 8 608 BDS-Burton 2 J15A.8+ 2nd VIII 00:08:56:2
329 11 252 BDS-Lorna 1 J15A.4+ 00:09:10:0
Club: Bryanston Sch
Scratched 197 BRY-Wilson 1 J16A.4+ 00:00:00:0
Scratched 230 BRY-Pollock 1 J15A.4x+ 00:00:00:0
Scratched 232 BRY-Chadwick 1 J15A.4x+ 00:00:00:0
Scratched 286 BRY-Cuninghame 1 W.J15A.2x 00:00:00:0
Scratched 669 BRY- J15 4x+ T.O. 1 2 J15A.4x+ 00:00:00:0
Scratched 686 BRY- J15 4x+ T.O. 2 2 J15A.4x+ 00:00:00:0
Scratched 688 BRY-J16 4+ T.O. 2 J16A.4+ 00:00:00:0
Club: Burway RC
Scratched 69 BUR-Barrett 1 J16A.2x 00:00:00:0
Club: Canford Sch
93 15 460 CAN-Evans 2 J18A.8+ 00:08:15:9
237 11 169 CAN-Jack 1 J18A.4+ 00:08:47:7
282 20 555 CAN-J15 2 J15A.8+ 00:08:58:1
291 13 181 CAN-Bartlett 1 J16A.4+ 00:09:00:3
313 16 597 CAN-Doyle 2 W.J18A.4x- 00:09:06:4
401 13 161 CAN-Hosking 1 J18A.4+ 00:09:29:0
414 10 647 CAN-Milner 2 W.J15A.8+ 00:09:33:9
431 12 222 CAN-Hewett 1 W.J16A.4+ 00:09:41:4
433 15 638 CAN-Hewett 2 W.J16A.4x- 00:09:41:5
451 9 210 CAN-Doyle 1 W.J18A.4+ 00:09:54:2
Scratched 670 CAN-Herrington 2 J15A.4x+ 00:00:00:0
Scratched 704 CAN-Marley 2 W.J15A.4x+ 00:00:00:0
Club: Charterhouse Sch BC
Scratched 491 CHH- J16 4x- 2 J18A.4x- 00:00:00:0
Scratched 676 CHH-Campbell-Wilson 2 J15A.4x+ 00:00:00:0
Club: City of Oxford
199 11 578 COX-Millard 2 W.J18A.4x- 00:08:41:1
251 8 273 COX-Stringer 1 W.J15A.4x+ 00:08:52:4
275 8 622 COX-Turner-Frick 2 W.J16A.4x- 00:08:57:3
347 18 594 COX-Clempson 2 W.J18A.4x- 00:09:15:2
364 20 75 COX-Millard 1 W.J18A.2x 00:09:19:0
381 23 84 COX-Beaver 1 W.J18A.2x 00:09:23:6
Club: Claires Court Sch
24 10 492 CCS-Yate 2 J18A.4x- 00:07:44:9
132 6 656 CCS-Nash 2 J15A.4x+ 00:08:24:5
278 16 667 CCS-Falck Award 2 J15A.4x+ 00:08:57:6
Scratched 4 CCS-Yate 1 J18A.2x 00:00:00:0
Scratched 11 CCS-Costley 1 J18A.2x 00:00:00:0
Scratched 55 CCS-Fairley 1 J16A.2x 00:00:00:0
Scratched 517 CCS-Broadhead 2 J16A.4x- 00:00:00:0
Scratched 528 CCS-Hall 2 J16A.4x- 00:00:00:0
Scratched 682 CCS-Hall 2 J15A.4x+ 00:00:00:0
Club: Dulwich Coll
8 8 458 DUL-Turnbull 2 J18A.8+ 00:07:28:3
27 2 499 DUL-Alleyn 2 J18A.8+ 2nd VIII 00:07:46:1
86 12 547 DUL-Shackleton 2 J15A.8+ 00:08:12:8
387 25 680 DUL-Endurance 2 J15A.4x+ 00:09:24:8
Scratched 184 DUL-Polaris 1 J16A.4+ 00:00:00:0
Scratched 507 DUL-Howard 2 J16A.8+ 00:00:00:0
Scratched 539 DUL-Tatman 2 J16A.8+ 2nd VIII 00:00:00:0
Club: Emanuel Sch
37 13 463 EMA-St Aubyn 2 J18A.8+ 00:07:52:4
76 19 481 EMA-Wilson 2 J18A.4x- 00:08:09:9
203 9 568 EMA-Thomas 2 W.J18A.8+ 00:08:41:8
221 4 645 EMA-Holmes 2 W.J15A.8+ 00:08:45:4
245 15 526 EMA-Silver 2 J16A.4x- 00:08:49:8
332 8 651 EMA-Polak 2 W.J15A.8+ 00:09:10:2
351 6 220 EMA-Beams 1 W.J16A.4+ 00:09:16:2
Club: Eton Coll
4 4 462 Mr Fantastic 2 J18A.8+ 00:07:14:5
5 5 456 Invisible Woman 2 J18A.8+ 00:07:20:4
25 1 159 Stark 1 J18A.4+ 00:07:45:0
33 4 501 Human Torch 2 J18A.8+ 2nd VIII 00:07:49:5
45 5 496 The Thing 2 J18A.8+ 2nd VIII 00:07:56:9
58 2 170 Targaryen 1 J18A.4+ 00:08:02:2
72 4 162 Lannister 1 J18A.4+ 00:08:09:1
109 7 505 ETN- Tanaka 2 J16A.8+ 00:08:19:8
201 8 179 ETN-Bewicke-Copley 1 J16A.4+ 00:08:41:5
208 9 188 ETN- Jain 1 J16A.4+ 00:08:42:6
247 8 511 ETN-Honnor 2 J16A.8+ 00:08:50:1
285 12 195 ETN-Howard 1 J16A.4+ 00:08:58:8
326 7 141 ETN-Vignial 1 J16A.2- 00:09:09:0
363 9 152 ETN-Hodson 1 J16A.2- 00:09:19:0
373 10 144 ETN-Pooley 1 J16A.2- 00:09:20:9
406 11 148 ETN-Whiteley 1 J16A.2- 00:09:30:3
Club: Globe
26 11 482 GLB-Sullivan 2 J18A.4x- 00:07:45:9
47 3 525 GLB-Bees 2 J16A.4x- 00:07:59:4
100 6 16 GLB-Sullivan-2 1 J18A.2x 00:08:18:2
101 7 5 GLB-Sullivan 1 J18A.2x 00:08:18:3
167 1 246 GLB-Watson-Gandy 1 J15A.2x 00:08:33:2
225 7 63 GLB-Kirk 1 J16A.2x 00:08:45:8
349 15 76 GLB-Samuel 1 W.J18A.2x 00:09:15:5
Scratched 296 GLB-Richards 1 W.J15A.2x 00:00:00:0
Scratched 711 GLB-Steven 2 W.J15A.4x+ 00:00:00:0
Club: Godolphin Sch
256 5 650 GLT-Turner 2 W.J15A.8+ 00:08:53:1
392 8 226 GLT-Lane 1 W.J16A.4+ 00:09:26:9
416 11 219 GLT-Bryant 1 W.J16A.4+ 00:09:34:6
Club: Gt Marlow Sch
18 10 461 GMS-Cunningham 2 J18A.8+ 00:07:43:7
46 3 155 GMS-Peace 1 JSchA.4- 00:07:57:7
148 7 571 GMS-Jobbagy 2 W.J18A.8+ 00:08:29:2
204 10 167 GMS-Westfold 1 J18A.4+ 00:08:42:1
214 5 177 GMS-Armes 1 W.JSchA.4- 00:08:43:2
230 3 172 GMS-Honey 1 J16A.4- 00:08:46:4
290 17 681 GMS-Bradley 2 J15A.4x+ 00:08:59:8
367 7 216 GMS-Peace 1 W.J16A.4+ 00:09:19:2
444 27 710 GMS-Smith 2 W.J15A.4x+ 00:09:50:4
Scratched 233 GMS-Rhodes 1 J15A.4x+ 00:00:00:0
Scratched 319 GMS-Fisher 1 W.J15A.4+ 00:00:00:0
Club: Hampton Sch BC
3 3 453 HAMPTON 2 J18A.8+ 00:07:13:4
15 1 497 HAM - Trevor 2 J18A.8+ 2nd VIII 00:07:41:5
28 1 153 HAM- SENIOR 4- 1 JSchA.4- 00:07:47:3
60 7 553 HAM-O Sullivan 2 J15A.8+ 00:08:03:8
65 5 158 HAM-Cockett 1 JSchA.4- 00:08:04:9
73 10 543 HAM-Orme 2 J15A.8+ 00:08:09:4
81 1 537 HAM-Woodall 2 J16A.4- 00:08:11:3
85 2 540 HAM-Chan 2 J16A.8+ 2nd VIII 00:08:12:3
98 2 538 HAM-Bridge 2 J16A.4- 00:08:16:9
119 2 30 HAM-Worthington 1 J18A.2- 00:08:21:1
142 4 42 HAM - MT 1 J18A.2- 00:08:28:4
150 3 254 HAM-A 1 J15A.4+ 00:08:29:5
153 9 166 HAM-Wright 1 J18A.4+ 00:08:30:1
180 6 187 HAM-Georghiades 1 J16A.4+ 00:08:36:8
181 7 605 HAM-Birchall 2 J15A.8+ 2nd VIII 00:08:37:7
206 7 262 HAM-B 1 J15A.4+ 00:08:42:3
238 2 149 HAM-Andrews 1 J16A.2- 00:08:47:9
240 3 142 HAM-Woodall 1 J16A.2- 00:08:48:9
250 4 146 HAM-Bridge 1 J16A.2- 00:08:51:6
280 10 264 HAM-C 1 J15A.4+ 00:08:57:7
283 11 193 HAM-Chan 1 J16A.4+ 00:08:58:6
297 12 171 HAM - Linqvist 1 J18A.4+ 00:09:01:3
308 9 610 HAM-Hettiaratchy 2 J15A.8+ 2nd VIII 00:09:04:8
450 29 234 Hampton 1 J15A.4x+ 00:09:53:8
Scratched 495 HAM - Warrington 2 J18A.4x- 00:00:00:0
Club: Headington Sch
80 1 574 HED-Little 2 W.J18A.4x- 00:08:11:2
94 3 565 HED-Butler 2 W.J18A.8+ 00:08:16:0
187 1 611 HED-Grainger 2 W.J16A.8+ 00:08:39:1
198 2 619 HED-Van Der Merwe 2 W.J16A.4x- 00:08:40:8
233 2 88 HED-Little 1 W.J18A.2x 00:08:46:7
241 6 691 HED-Milne 2 W.J15A.4x+ 00:08:49:2
252 4 73 HED-Pullinger 1 W.J18A.2x 00:08:52:4
289 5 200 HED-Smith 1 W.J18A.4+ 00:08:59:5
296 8 108 HED-Hornby 1 W.J18A.2x 00:09:01:2
383 4 120 HED-Butler 1 W.J18A.2- 00:09:24:5
390 5 113 HED-Haskins 1 W.J18A.2- 00:09:26:4
454 31 706 HED-Shah 2 W.J15A.4x+ 00:09:58:2
Scratched 117 HED-Stephens 1 W.J18A.2- 00:00:00:0
Club: Henley RC
51 5 548 HEN-Swinburn 2 J15A.8+ 00:08:00:5
52 4 515 HEN-Issa 2 J16A.4x- 00:08:00:9
71 1 228 HEN-Swinburn 1 J15A.4x+ 00:08:07:3
79 2 562 HEN-BUTTERWORTH 2 W.J18A.8+ 00:08:10:8
123 2 644 HEN-Howard 2 W.J15A.8+ 00:08:22:3
131 3 586 HEN-Morgan 2 W.J18A.4x- 00:08:24:3
134 2 48 HEN-Issa 1 J16A.2x 00:08:25:3
140 7 231 HEN-Beattie 1 J15A.4x+ 00:08:28:2
149 1 631 HEN-O Donohue 2 W.J16A.4x- 00:08:29:4
183 4 175 HEN-Lock 1 W.JSchA.4- 00:08:38:5
184 2 277 HEN-Hills 1 W.J15A.4x+ 00:08:38:7
190 11 679 HEN-McLellan 2 J15A.4x+ 00:08:39:3
253 5 109 HEN-Kay 1 W.J18A.2x 00:08:52:5
269 9 62 HEN-Sidgwick 1 J16A.2x 00:08:56:6
271 2 312 HEN-Drury 1 W.J15A.4+ 00:08:56:9
274 2 206 HEN-Sotnick 1 W.J18A.4+ 00:08:57:2
298 2 116 HEN-Jonsson 1 W.J18A.2- 00:09:01:5
338 3 112 HEN-Edwards 1 W.J18A.2- 00:09:12:5
Club: HMSG RC
264 5 612 HAB-Frankel 2 W.J16A.8+ 00:08:56:1
377 8 204 HAB-Hunter 1 W.J18A.4+ 00:09:21:9
407 10 225 HAB-Blagbrough 1 W.J16A.4+ 00:09:30:4
412 8 318 HAB-Frankel 1 W.J15A.4+ 00:09:32:5
Scratched 201 HAB-Du Toit 1 W.J18A.4+ 00:00:00:0
Club: Kings College Sch
38 1 552 Thompson 2 J15A.8+ 00:07:53:2
95 1 602 Guns 2 J15A.8+ 2nd VIII 00:08:16:4
436 22 595 KCS-Nicol 2 W.J18A.4x- 00:09:43:8
Club: Kings Sch Canterbury
42 15 475 KCA-Edgar, 2 J18A.4x- 00:07:55:9
70 9 549 KCA-Kahol de Jong 2 J15A.8+ 00:08:07:1
207 15 21 KCA-Kahol de jong 1 J18A.2x 00:08:42:6
226 10 573 KCA-Abbott 2 W.J18A.8+ 00:08:46:0
350 16 74 KCA-Hofmann 1 W.J18A.2x 00:09:16:1
456 30 687 KCA-Dominic 2 J15A.4x+ 00:10:03:3
468 33 698 KCA-Josie 2 W.J15A.4x+ 00:10:26:7
Club: Kings Sch Ely
273 7 630 KSE-Garrett 2 W.J16A.4x- 00:08:57:2
316 12 61 KSE-SCHOOL 1 J16A.2x 00:09:06:9
369 3 131 KSE - HILL 1 W.J16A.2x 00:09:19:5
388 25 99 KSE-HILL HOUSE 1 W.J18A.2x 00:09:25:5
404 27 229 KSE-SCHOOL B 1 J15A.4x+ 00:09:29:6
465 18 301 KSE-Kirkpatrick 1 W.J15A.2x 00:10:18:6
Scratched 53 KSE - HEREWARD 1 J16A.2x 00:00:00:0
Scratched 124 KSE-Withburger 1 W.J16A.2x 00:00:00:0
Club: Kingston G Sch
83 6 509 KGS J16 2 J16A.8+ 00:08:12:1
155 19 561 KGS- Farrer 2 J15A.8+ 00:08:30:6
228 11 569 KGS- Girls 2 W.J18A.8+ 00:08:46:3
270 10 189 KGS J16 1 J16A.4+ 00:08:56:7
325 6 150 KGS-J16 1 J16A.2- 00:09:08:9
359 9 648 KGS-1 2 W.J15A.8+ 00:09:18:2
365 6 313 KGS-1 1 W.J15A.4+ 00:09:19:1
391 10 607 KGS- Stroud mk 2 2 J15A.8+ 2nd VIII 00:09:26:8
403 9 221 KGS-GJ16 4+ 1 W.J16A.4+ 00:09:29:4
408 28 85 KGS-Gibson 1 W.J18A.2x 00:09:31:2
434 13 260 KGS-Thom 1 J15A.4+ 00:09:42:1
445 9 316 KGS-2 1 W.J15A.4+ 00:09:51:0
464 32 707 KGS-1 2 W.J15A.4x+ 00:10:14:6
Scratched 20 KGS-J18 1 J18A.2x 00:00:00:0
Scratched 49 KGS-J16 1 J16A.2x 00:00:00:0
Scratched 134 KGS-Betts 1 W.J16A.2x 00:00:00:0
Scratched 321 KGS-3 1 W.J15A.4+ 00:00:00:0
Club: Kingston GS/Kings Canterbury
Time Only 34 KGS/KCA -Spurling/Allinson 1 J18A.2- 00:08:24:0
Club: Kingston RC
87 1 186 KRC-Cramp 1 J16A.4+ 00:08:12:8
215 1 317 KRC-A 1 W.J15A.4+ 00:08:43:5
324 4 320 KRC-B 1 W.J15A.4+ 00:09:08:4
Scratched 104 KRC-Thompson 1 W.J18A.2x 00:00:00:0
Club: Lady E Holles
106 4 564 LEH 2 W.J18A.8+ 00:08:18:8
137 4 579 LEH 2 W.J18A.4x- 00:08:27:7
139 3 643 LEH-Cross 2 W.J15A.8+ 00:08:28:1
162 2 174 LEH-Taylor 1 W.JSchA.4- 00:08:32:4
177 3 639 LEH 2 W.JSchA.4- 00:08:36:4
195 2 614 Leh 2 W.J16A.8+ 00:08:40:5
232 5 275 LEH-Cross 1 W.J15A.4x+ 00:08:46:4
254 9 280 LEH-Deol 1 W.J15A.4x+ 00:08:52:7
276 3 199 LEH-bowyer 1 W.J18A.4+ 00:08:57:4
284 4 209 LEH-Mason 1 W.J18A.4+ 00:08:58:7
288 1 114 LEH 1 W.J18A.2- 00:08:59:4
300 1 211 LEH-Noursadeghi 1 W.J16A.4- 00:09:01:7
336 5 217 LEH 1 W.J16A.4+ 00:09:11:8
344 16 689 LEH-Pillay 2 W.J15A.4x+ 00:09:13:8
355 5 310 LEH-Guest 1 W.J15A.4+ 00:09:17:0
442 32 92 LEH-Rhodes 1 W.J18A.2x 00:09:48:7
Scratched 82 LEH-Witt 1 W.J18A.2x 00:00:00:0
Club: Latymer Upper Sch
29 12 476 LTU-Mayhew 2 J18A.4x- 00:07:48:2
30 2 154 LTU-Traeger 1 JSchA.4- 00:07:48:8
34 1 506 LTU-Harrison 2 J16A.8+ 00:07:50:2
43 2 545 LTU-J15A 2 J15A.8+ 00:07:56:2
92 1 249 LTU-J15A 1 J15A.4+ 00:08:14:8
111 21 493 LTU-Hussey 2 J18A.4x- 00:08:20:0
117 1 642 LTU-A 2 W.J15A.8+ 00:08:20:8
133 8 165 LTU-Ward 1 J18A.4+ 00:08:25:2
138 5 577 LTU-Nelson 2 W.J18A.4x- 00:08:27:8
172 6 255 LTU-B 1 J15A.4+ 00:08:34:5
179 1 265 LTU-A 1 W.J15A.4x+ 00:08:36:6
196 4 278 LTU-B 1 W.J15A.4x+ 00:08:40:6
205 3 623 LTU-Hdjw 2 W.J16A.4x- 00:08:42:1
211 5 56 LTU-Ferm 1 J16A.2x 00:08:42:9
212 8 263 LTU-J15C 1 J15A.4+ 00:08:42:9
258 6 637 LTU-Seal 2 W.J16A.4x- 00:08:53:5
277 6 86 LTU-Thomas 1 W.J18A.2x 00:08:57:5
293 2 214 LTU-Jones 1 W.J16A.4+ 00:09:00:9
320 5 151 LTU-Harrison 1 J16A.2- 00:09:08:0
321 11 96 LTU-Lloyd 1 W.J18A.2x 00:09:08:1
322 12 94 LTU-Fabrizio 1 W.J18A.2x 00:09:08:4
346 14 106 LTU-Hdjw 1 W.J18A.2x 00:09:14:9
356 8 143 LTU-Rowland 1 J16A.2- 00:09:17:4
405 27 72 LTU-Marshall 1 W.J18A.2x 00:09:30:0
Scratched 282 LTU-C 1 W.J15A.4x+ 00:00:00:0
Scratched 596 LTU-Marshall 2 W.J18A.4x- 00:00:00:0
Scratched 601 LTU-J15B 2 J15A.8+ 2nd VIII 00:00:00:0
Club: Lea RC
9 1 469 LEA-Badcott 2 J18A.4x- 00:07:31:5
114 1 50 LEA-den Dulk 1 J16A.2x 00:08:20:5
210 3 618 LEA-Millard 2 W.J16A.8+ 00:08:42:7
249 1 215 LEA-Froggatt-Brown 1 W.J16A.4+ 00:08:51:4
Club: Llandaff RC
22 12 466 LLA-Wing 2 J18A.8+ 00:07:44:4
145 5 36 LLA-Davies 1 J18A.2- 00:08:28:8
151 6 580 LLA-Wright 2 W.J18A.4x- 00:08:29:8
292 7 87 LLA-Jenkins 1 W.J18A.2x 00:09:00:5
Club: Lon Oratory Sch
14 9 455 LOS Dickens 2 J18A.8+ 00:07:38:1
50 4 556 LOS Yanez-Cunningham 2 J15A.8+ 00:08:00:4
56 4 510 LOS Jinks 2 J16A.8+ 00:08:02:1
97 6 163 LOS Joseph 1 J18A.4+ 00:08:16:8
129 3 190 LOS Davies 1 J16A.4+ 00:08:24:1
130 8 156 LOS Jones 1 JSchA.4- 00:08:24:1
135 4 606 LOS Chapman 2 J15A.8+ 2nd VIII 00:08:25:6
166 5 251 LOS Kaleta 1 J15A.4+ 00:08:33:0
Scratched 519 LOS Rolls 2 J16A.4x- 00:00:00:0
Club: LVS Ascot BC
262 13 45 LVA-Oliver 1 J18A.2- 00:08:55:1
319 14 192 LVA-Tuohy 1 J16A.4+ 00:09:07:6
Scratched 196 LVA-Crisp 1 J16A.4+ 00:00:00:0
Scratched 290 LVA-Binmore 1 W.J15A.2x 00:00:00:0
Club: LYR Tradesmen
341 17 585 LYT-Tombolis 2 W.J18A.4x- 00:09:13:5
394 26 89 LYT-Winyard 1 W.J18A.2x 00:09:27:4
400 20 592 LYT-Thomson 2 W.J18A.4x- 00:09:28:3
417 16 68 LYT-Delfs 1 J16A.2x 00:09:34:6
430 25 268 LYT-Newhouse 1 W.J15A.4x+ 00:09:41:2
457 15 309 LYT-Golub 1 W.J15A.2x 00:10:03:5
Scratched 652 LYT-Newhouse 2 W.J15A.8+ 00:00:00:0
Club: Magdalen Coll Sch
227 14 534 MGN-Galloway 2 J16A.4x- 00:08:46:1
312 19 662 MGN-Buckland 2 J15A.4x+ 00:09:06:3
330 21 678 MGN-Bradbery 2 J15A.4x+ 00:09:10:1
Club: Maidenhead RC
13 5 467 MHD-Kleshnev 2 J18A.4x- 00:07:36:7
17 7 490 MHD-O Mahony 2 J18A.4x- 00:07:42:3
64 3 3 MHD-Kleshnev 1 J18A.2x 00:08:04:7
103 8 15 MHD-O Mahony 1 J18A.2x 00:08:18:7
160 9 658 MHD-Overturf 2 J15A.4x+ 00:08:32:0
189 7 40 MHD-Somerville 1 J18A.2- 00:08:39:1
194 3 237 MHD-Overturf 1 J15A.2x 00:08:40:3
286 7 245 MHD-Hughes 1 J15A.2x 00:08:59:0
362 2 641 MHD-Harding 2 W.J16A.4- 00:09:18:9
380 22 98 MHD-Ross-Masson 1 W.J18A.2x 00:09:23:3
398 19 591 MHD-Howell 2 W.J18A.4x- 00:09:28:0
426 29 79 MHD-Tomasik 1 W.J18A.2x 00:09:39:9
Scratched 23 MHD-Rowe 1 J18A.2x 00:00:00:0
Club: Marlow RC
Scratched 13 MAR-Fairman 1 J18A.2x 00:00:00:0
Scratched 27 MAR-Simon 1 J18A.2x 00:00:00:0
Scratched 33 MAR-Smith 1 J18A.2- 00:00:00:0
Scratched 51 MAR-Crossley 1 J16A.2x 00:00:00:0
Scratched 101 MAR-Bird 1 W.J18A.2x 00:00:00:0
Scratched 118 MAR-Fennell 1 W.J18A.2- 00:00:00:0
Scratched 140 MAR-Eveleigh 1 W.J16A.2x 00:00:00:0
Scratched 182 MAR-Denson 1 J16A.4+ 00:00:00:0
Scratched 203 MAR-Strudwick 1 W.J18A.4+ 00:00:00:0
Scratched 218 MAR-Berry 1 W.J16A.4+ 00:00:00:0
Scratched 279 MAR-Clark-Pratt 1 W.J15A.4x+ 00:00:00:0
Scratched 288 MAR-Huggett 1 W.J15A.2x 00:00:00:0
Scratched 471 MAR-Long 2 J18A.4x- 00:00:00:0
Scratched 518 MAR-Marshall 2 J16A.4x- 00:00:00:0
Scratched 563 MAR-Strudwick 2 W.J18A.8+ 00:00:00:0
Scratched 620 MAR-Brooks 2 W.J16A.4x- 00:00:00:0
Club: Molesey BC
6 6 457 MBC-Hardy 2 J18A.8+ 00:07:21:5
55 4 157 MBC A 1 JSchA.4- 00:08:02:1
89 8 513 MBC-Miller 2 J16A.4x- 00:08:13:6
104 2 575 MBC-A 2 W.J18A.4x- 00:08:18:7
116 1 29 MBC-A 1 J18A.2- 00:08:20:8
122 3 41 MBC-B 1 J18A.2- 00:08:21:7
178 10 657 MBC-A 2 J15A.4x+ 00:08:36:6
197 13 28 MBC-Lucas 1 J18A.2x 00:08:40:7
209 4 236 MBC-Boret 1 J15A.2x 00:08:42:6
218 13 590 MBC-B 2 W.J18A.4x- 00:08:43:8
220 8 43 MBC-C 1 J18A.2- 00:08:45:0
229 1 71 MBC-Dunford 1 W.J18A.2x 00:08:46:4
307 6 208 MBC-Parker 1 W.J18A.4+ 00:09:04:6
335 12 621 MBC-Henderson 2 W.J16A.4x- 00:09:11:4
342 11 243 MBC-Williams 1 J15A.2x 00:09:13:6
389 26 675 MBC-B 2 J15A.4x+ 00:09:26:0
397 6 123 MBC-Dunford 1 W.J16A.2x 00:09:28:0
411 22 694 MBC-Catling-Hall 2 W.J15A.4x+ 00:09:32:2
Scratched 95 MBC-Truett 1 W.J18A.2x 00:00:00:0
Club: Monmouth Comprehensive Sch
61 5 524 MOC-Williams 2 J16A.4x- 00:08:04:0
88 20 494 MOC-Jones 2 J18A.4x- 00:08:13:4
305 10 628 MOC-Richards 2 W.J16A.4x- 00:09:04:0
340 15 703 MOC-Harrison 2 W.J15A.4x+ 00:09:12:7
366 24 661 MOC-Chilcott 2 J15A.4x+ 00:09:19:2
Club: Northwich RC
16 6 473 NOW-Dudley 2 J18A.4x- 00:07:42:2
53 17 489 NOW-Swithenbank 2 J18A.4x- 00:08:01:1
108 9 24 NOW-Coffey 1 J18A.2x 00:08:19:2
125 11 8 NOW-Dudley 1 J18A.2x 00:08:23:3
169 7 584 NOW-Wolstencroft 2 W.J18A.4x- 00:08:33:9
173 12 19 NOW-Burke 1 J18A.2x 00:08:34:9
185 4 57 NOW-Miles 1 J16A.2x 00:08:38:7
223 5 632 NOW-Shirley 2 W.J16A.4x- 00:08:45:7
368 17 269 NOW-Sperring-Toy 2 W.J15A.4x+ 00:09:19:3
Scratched 97 NOW-George 1 W.J18A.2x 00:00:00:0
Scratched 139 NOW-Shirley 1 W.J16A.2x 00:00:00:0
Club: Norwich Sch
36 13 479 NSC-Burrell 2 J18A.4x- 00:07:51:9
74 6 536 NSC-Bacic 2 JSchA.4- 00:08:09:6
99 2 198 NSC-Hook 1 J16A.4+ 00:08:17:9
102 14 557 NSC-J15 I 2 J15A.8+ 00:08:18:4
118 9 520 NSC-Davis 2 J16A.4x- 00:08:21:0
120 3 604 NSC-J15 II 2 J15A.8+ 2nd VIII 00:08:21:7
124 10 17 NSC-Tremelling 1 J18A.2x 00:08:22:5
164 6 38 NSC-Bacic 1 J18A.2- 00:08:32:5
217 9 253 NSC-J15 III 1 J15A.4+ 00:08:43:8
239 10 31 NSC-Cann 1 J18A.2- 00:08:48:4
244 11 44 NSC-Burrell 1 J18A.2- 00:08:49:8
263 6 240 NSC-J15 V 1 J15A.2x 00:08:55:5
384 12 258 NSC-J15 IV 1 J15A.4+ 00:09:24:6
448 29 699 NSC-WJ154x+ 2 W.J15A.4x+ 00:09:52:8
467 19 291 NSC-Shaw 1 W.J15A.2x 00:10:25:6
Scratched 54 NSC-Walton 1 J16A.2x 00:00:00:0
Scratched 59 NSC-Dixon 1 J16A.2x 00:00:00:0
Club: Oratory Sch
41 14 465 ORA-Kibble 2 J18A.8+ 00:07:55:1
Club: Oundle Sch
40 14 488 OUN-Davis Gimeno 2 J18A.4x- 00:07:54:4
Club: Putney High Sch
147 6 572 PHS 2 W.J18A.8+ 00:08:29:1
259 1 207 PHS-J18 1 W.J18A.4+ 00:08:53:6
268 7 649 PHS-Newsholme 2 W.J15A.8+ 00:08:56:5
302 3 314 PHS-Bridges 1 W.J15A.4+ 00:09:02:7
323 4 212 PHS-Zedda James 1 W.J16A.4+ 00:09:08:4
459 12 125 PHS-Head 1 W.J16A.2x 00:10:04:4
466 13 130 PHS-Saunders 1 W.J16A.2x 00:10:19:1
Scratched 136 PHS-Awe 1 W.J16A.2x 00:00:00:0
Scratched 300 PHS-Hendry 1 W.J15A.2x 00:00:00:0
Scratched 617 PHS 2 W.J16A.8+ 00:00:00:0
Club: Radley College
2 2 451 RAD-Corner 2 J18A.8+ 00:07:13:4
48 1 541 RAD-Redley 2 J16A.8+ 2nd VIII 00:07:59:8
54 3 504 RAD-Taylor 2 J16A.8+ 00:08:02:1
90 6 498 RAD-House 2 J18A.8+ 2nd VIII 00:08:14:1
96 13 550 RAD-Senior 2 J15A.8+ 00:08:16:7
112 2 600 RAD-Berry 2 J15A.8+ 2nd VIII 00:08:20:0
Scratched 523 RAD-Rhodes 2 J16A.4x- 00:00:00:0
Scratched 666 RAD-Wakeley 2 J15A.4x+ 00:00:00:0
Club: Radnor House Sch
Scratched 70 RDH-Sharp 1 J16A.2x 00:00:00:0
Club: RGS High Wycombe
68 6 522 HWG - 16A 2 J16A.4x- 00:08:06:0
144 23 487 HWG-18A 2 J18A.4x- 00:08:28:5
156 8 659 HWG-A 15 2 J15A.4x+ 00:08:31:3
242 14 674 HWG-B 15 2 J15A.4x+ 00:08:49:3
399 13 241 HWG-A 2x 15 1 J15A.2x 00:09:28:2
Club: Ross RC
315 20 677 ROS-Clatworthy 2 J15A.4x+ 00:09:06:8
334 14 702 ROS-Ryan 2 W.J15A.4x+ 00:09:10:9
353 1 299 ROS-Phillips 1 W.J15A.2x 00:09:16:6
432 10 304 ROS-Ryan 1 W.J15A.2x 00:09:41:4
Club: Shiplake Vikings
328 11 705 SHV-Lee 2 W.J15A.4x+ 00:09:09:9
455 11 127 SHV-Gordon 1 W.J16A.2x 00:09:59:8
Scratched 624 SHV-Hatlee 2 W.J16A.4x- 00:00:00:0
Club: Sir William Perkins s Sch
171 8 581 SWP-Taylor 2 W.J18A.4x- 00:08:34:2
222 4 613 SWP-Wax 2 W.J16A.8+ 00:08:45:6
235 14 589 SWP-Dugas 2 W.J18A.4x- 00:08:47:2
352 17 93 SWP-Garnham 1 W.J18A.2x 00:09:16:5
370 18 693 SWP-Jordan 2 W.J15A.4x+ 00:09:19:6
379 21 83 SWP-Fountain 1 W.J18A.2x 00:09:22:8
385 24 77 SWP-Taylor 1 W.J18A.2x 00:09:24:7
421 7 287 SWP-Martin 1 W.J15A.2x 00:09:38:6
422 8 289 SWP-Faukentoft-Hansen 1 W.J15A.2x 00:09:38:9
425 24 709 SWP-Martin 2 W.J15A.4x+ 00:09:39:3
427 9 293 SWP-Hawkes 1 W.J15A.2x 00:09:40:3
Time Only 227 SWP - Z 1 W.J16A.4+ 00:09:15:1
Scratched 103 SWP-Dalton 1 W.J18A.2x 00:00:00:0
Scratched 267 SWP-Phelps 1 W.J15A.4x+ 00:00:00:0
Scratched 303 SWP-Moss 1 W.J15A.2x 00:00:00:0
Club: St Edwards Sch
82 11 551 SES-Colson Lake 2 J15A.8+ 00:08:11:8
158 24 483 SES-Peiker 2 J18A.4x- 00:08:31:9
360 14 633 SES-Prower 2 W.J16A.4x- 00:09:18:4
376 7 315 SES-Thomas 1 W.J15A.4+ 00:09:21:8
Scratched 180 SES-Moore 1 J16A.4+ 00:00:00:0
Scratched 224 SES-Cope 1 W.J16A.4+ 00:00:00:0
Scratched 454 SES-Dei Rossi 2 J18A.8+ 00:00:00:0
Club: St Pauls Girls Sch BC
157 1 178 SPG-Valt 1 W.JSchA.4- 00:08:31:9
170 8 566 SPG-Valt 2 W.J18A.8+ 00:08:34:0
304 6 615 SPG-Boot 2 W.J16A.8+ 00:09:04:0
413 23 701 SPG-Davidson 2 W.J15A.4x+ 00:09:33:9
423 8 121 SPG-Strong 1 W.J16A.2x 00:09:39:1
441 10 129 SPG-Spielman 1 W.J16A.2x 00:09:47:1
446 28 276 SPG-Stuart-Smith 1 W.J15A.4x+ 00:09:51:2
Scratched 202 SPG-Lewis 1 W.J18A.4+ 00:00:00:0
Club: St Pauls Sch BC
35 2 502 Black 2 J16A.8+ 00:07:50:4
44 3 544 SPS A 2 J15A.8+ 00:07:56:5
154 4 185 SPS-2 1 J16A.4+ 00:08:30:2
163 4 250 SPS 1 1 J15A.4+ 00:08:32:5
175 6 599 SPS 1 2 J15A.8+ 2nd VIII 00:08:35:8
186 7 191 SPS-3 1 J16A.4+ 00:08:38:8
Scratched 256 SPS 2 1 J15A.4+ 00:00:00:0
Scratched 261 SPS-Daniel 1 J15A.4+ 00:00:00:0
Scratched 609 SPS 2 2 J15A.8+ 2nd VIII 00:00:00:0
Club: Staines
354 18 105 STN-Hannam 1 W.J18A.2x 00:09:16:7
396 3 302 STN-Burton 1 W.J15A.2x 00:09:27:6
419 6 283 STN-Knight 1 W.J15A.2x 00:09:37:0
458 16 295 STN-Mason 1 W.J15A.2x 00:10:04:4
Club: Star & Arrow
12 4 468 SAA-1 2 J18A.4x- 00:07:34:0
23 9 484 SAA-2 2 J18A.4x- 00:07:44:5
Club: Star Club
Scratched 478 STA-Molloy 2 J18A.4x- 00:00:00:0
Scratched 521 STA-White 2 J16A.4x- 00:00:00:0
Scratched 582 STA-Upex 2 W.J18A.4x- 00:00:00:0
Club: Surbiton H Sch
115 5 567 SBT-Brister-Runnacles 2 W.J18A.8+ 00:08:20:7
246 7 270 SBT-Sutton 1 W.J15A.4x+ 00:08:50:0
257 7 173 SBT-Brister-Runnacles 1 W.JSchA.4- 00:08:53:3
267 6 646 SBT-Mustafa 2 W.J15A.8+ 00:08:56:4
333 13 274 SBT-Sanders 1 W.J15A.4x+ 00:09:10:5
337 13 110 SBT-Croft 1 W.J18A.2x 00:09:12:3
375 5 126 SBT-Slater 1 W.J16A.2x 00:09:21:4
424 9 137 SBT-McCarthy 1 W.J16A.2x 00:09:39:2
Scratched 311 SBT-Mustafa 1 W.J15A.4+ 00:00:00:0
Scratched 634 SBT-Richards 2 W.J16A.4x- 00:00:00:0
Club: Team Keane
294 25 486 TKC-Demargne 2 J18A.4x- 00:09:00:9
299 18 673 TKC-Sprackling 2 J15A.4x+ 00:09:01:5
402 21 700 TKC-Egelie 2 W.J15A.4x+ 00:09:29:3
428 28 665 TKC-Esin 2 J15A.4x+ 00:09:40:3
449 16 635 TKC-Keene 2 W.J16A.4x- 00:09:53:6
472 36 712 TKC-Nichols 2 W.J15A.4x+ 00:10:39:9
Scratched 683 TKC-Hulme 2 J15A.4x+ 00:00:00:0
Club: Thames RC
176 9 576 TRC-Munyard 2 W.J18A.4x- 00:08:36:1
279 10 67 TRC-Murray 1 J16A.2x 00:08:57:7
303 9 100 TRC-Munyard 1 W.J18A.2x 00:09:03:5
311 11 626 TRC-Kelly 2 W.J16A.4x- 00:09:06:3
Scratched 90 TRC-Knight 1 W.J18A.2x 00:00:00:0
Club: Tideway Scullers Sch
10 2 472 TSS-Aladay 2 J18A.4x- 00:07:31:5
31 2 512 TSS-Hill 2 J16A.4x- 00:07:49:3
62 2 10 TSS-Kelly 1 J18A.2x 00:08:04:3
110 2 663 TSS-Murphie 2 J15A.4x+ 00:08:19:8
188 3 690 TSS-Lack 2 W.J15A.4x+ 00:08:39:1
193 2 239 TSS-de St Croix 1 J15A.2x 00:08:40:2
216 4 625 TSS-van Wachem 2 W.J16A.4x- 00:08:43:6
255 8 58 TSS-Jonas 1 J16A.2x 00:08:53:0
295 3 213 TSS-Joss 1 W.J16A.4+ 00:09:01:1
306 10 111 TSS-Wedderburn 1 W.J18A.2x 00:09:04:3
317 9 248 TSS-Thompson 1 J15A.2x 00:09:07:3
361 2 138 TSS-Supple 1 W.J16A.2x 00:09:18:6
378 2 297 TSS-Mavra 1 W.J15A.2x 00:09:22:2
443 12 284 TSS-Campbell 1 W.J15A.2x 00:09:49:0
Scratched 39 TSS-Hatteland-Dunn 1 J18A.2- 00:00:00:0
Scratched 145 TSS-Pilkington Massey 1 J16A.2- 00:00:00:0
Club: Tiffin Sch
113 22 485 TFN-Morris 2 J18A.4x- 00:08:20:2
168 12 529 TFN-Lambert 2 J16A.4x- 00:08:33:7
345 22 671 TFN-Trovalusci 2 J15A.4x+ 00:09:14:2
462 33 107 TFN-Tribe 1 W.J18A.2x 00:10:09:3
Scratched 684 TFN-Herath 2 J15A.4x+ 00:00:00:0
Club: Walbrook
Scratched 583 WBK-Suter 2 W.J18A.4x- 00:00:00:0
Club: Wallingford RC
Scratched 2 WRC-Hearnden 1 J18A.2x 00:00:00:0
Scratched 60 WRC-Robson 1 J16A.2x 00:00:00:0
Scratched 244 WRC-Mangion 1 J15A.2x 00:00:00:0
Scratched 266 WRC-Campbell 1 W.J15A.4x+ 00:00:00:0
Scratched 308 WRC-Barton 1 W.J15A.2x 00:00:00:0
Club: Walton RC
20 1 514 WLT-Suphi 2 J16A.4x- 00:07:44:2
75 7 535 WLT-Pickering 2 JSchA.4- 00:08:09:7
127 4 653 WLT-McLennan 2 J15A.4x+ 00:08:23:4
146 2 259 WLT-O Neill 1 J15A.4+ 00:08:28:9
165 1 147 WLT-Heywood 1 J16A.2- 00:08:32:9
174 3 46 WLT-Suphi 1 J16A.2x 00:08:35:6
182 13 532 WLT-Nienow 2 J16A.4x- 00:08:38:3
261 12 32 WLT-Jenkinson 1 J18A.2- 00:08:54:8
281 14 37 WLT-Cleary 1 J18A.2- 00:08:57:8
301 9 627 WLT-Stenning 2 W.J16A.4x- 00:09:02:4
318 10 235 WLT-Kiss 1 J15A.2x 00:09:07:3
331 12 692 WLT-Catlin 2 W.J15A.4x+ 00:09:10:1
348 8 640 WLT-Gray 2 W.JSchA.4- 00:09:15:4
372 4 128 WLT-Stenning 1 W.J16A.2x 00:09:20:7
409 15 65 WLT-Armella 1 J16A.2x 00:09:32:0
415 5 306 WLT-Catlin 1 W.J15A.2x 00:09:34:0
420 6 119 WLT-Alexopoulos 1 W.J18A.2- 00:09:37:6
439 31 80 WLT-Furber 1 W.J18A.2x 00:09:44:2
Club: Westminster Sch
19 8 477 w17wsQ 2 J18A.4x- 00:07:44:1
57 6 542 17ws15 8x 2 J15A.8+ 00:08:02:1
152 5 603 WES-Odusanya 2 J15A.8+ 2nd VIII 00:08:29:8
Scratched 503 17ws16 8 2 J16A.8+ 00:00:00:0
Club: Weybridge RC
Scratched 91 WEY-Goochild 1 W.J18A.2x 00:00:00:0
Scratched 257 WEY-Shore 1 J15A.4+ 00:00:00:0
Scratched 616 WEY-Brosnan 2 W.J16A.8+ 00:00:00:0
Club: Whitgift Sch BC
143 18 558 WGT-Moisley 2 J15A.8+ 00:08:28:4
327 19 22 WGT-Mahmood 1 J18A.2x 00:09:09:2
374 13 64 WGT-Martin 1 J16A.2x 00:09:21:1
382 16 530 WGT-Pringle 2 J16A.4x- 00:09:23:8
440 15 183 WGT-Pringle 1 J16A.4+ 00:09:45:3
Club: Wimbledon High Sch
447 13 292 WHS A Bassadone 1 W.J15A.2x 00:09:52:4
453 30 695 WHS-Bassadone 2 W.J15A.4x+ 00:09:55:3
460 13 223 WHS-Wong 1 W.J16A.4+ 00:10:06:1
463 17 298 WHS-Wallace 1 W.J15A.2x 00:10:12:8
469 20 294 WHS-Hill 1 W.J15A.2x 00:10:31:0
470 34 714 WHS-Ellis 2 W.J15A.4x+ 00:10:31:1
471 35 708 WHS-Crawford Collins 2 W.J15A.4x+ 00:10:33:8
Scratched 133 WHS-Mercer 1 W.J16A.2x 00:00:00:0
Club: Winchester Coll
1 1 452 WinColl8+ 2 J18A.8+ 00:07:04:9
63 8 560 J15A.8+ 2 J15A.8+ 00:08:04:4
105 7 168 WIN-Davidson 1 J18A.4+ 00:08:18:8
314 18 26 WIN-St John Butler 1 J18A.2x 00:09:06:6
Club: Windsor Boys Sch
11 3 470 WBS-Smith 2 J18A.4x- 00:07:33:6
39 1 25 WBS-Smith 1 J18A.2x 00:07:54:1
78 4 6 WBS-Shewell 1 J18A.2x 00:08:10:8
84 7 516 WBS-Philipson 2 J16A.4x- 00:08:12:2
91 5 12 WBS-Bodkin 1 J18A.2x 00:08:14:6
128 5 660 WBS-Howe 2 J15A.4x+ 00:08:23:4
136 10 531 WBS-Tebbit 2 J16A.4x- 00:08:26:9
192 12 664 WBS-Potts 2 J15A.4x+ 00:08:40:0
213 6 52 WBS-Tebbit 1 J16A.2x 00:08:42:9
224 13 685 WBS-Islam 2 J15A.4x+ 00:08:45:7
236 5 238 WBS-van Gelderen 1 J15A.2x 00:08:47:2
260 15 672 WBS-Blake 2 J15A.4x+ 00:08:53:6
287 8 242 WBS-Frobisher 1 J15A.2x 00:08:59:2
309 11 66 WBS-Cleare 1 J16A.2x 00:09:05:0
358 23 655 WBS-Davis 2 J15A.4x+ 00:09:17:6
Club: Worcester RC
Scratched 533 WRR-Hall 2 J16A.4x- 00:00:00:0
Scratched 636 WRR-Silvester 2 W.J16A.4x- 00:00:00:0